Time;durP1;ratioP1;P1;durP2;ratioP2;P2;SDS_P1;SDS_P2;PMS_P1;PMS_P2;Temp;Humidity;BMP_temperature;BMP_pressure;BME280_temperature;BME280_humidity;BME280_pressure;Samples;Min_cycle;Max_cycle;Signal;HPM_P1;HPM_P2
2022/07/05 00:00:59;;;;;;;58.58;49.40;;;24.10;56.40;;;;;;5022163;27;91265;-54
2022/07/05 00:03:24;;;;;;;59.20;49.33;;;24.10;56.50;;;;;;5029767;27;89814;-53
2022/07/05 00:05:51;;;;;;;57.95;49.25;;;24.10;56.60;;;;;;5024073;27;90199;-51
2022/07/05 00:08:16;;;;;;;57.90;49.25;;;24.10;56.60;;;;;;5020196;27;90279;-51
2022/07/05 00:10:42;;;;;;;58.15;49.15;;;24.10;56.60;;;;;;5022073;27;89741;-50
2022/07/05 00:13:09;;;;;;;57.53;49.15;;;24.00;56.70;;;;;;5020738;27;90724;-51
2022/07/05 00:15:34;;;;;;;58.80;49.25;;;24.00;56.70;;;;;;5032802;27;89833;-50
2022/07/05 00:18:00;;;;;;;57.67;49.33;;;24.00;56.70;;;;;;5024854;27;89468;-49
2022/07/05 00:20:26;;;;;;;57.70;49.17;;;24.00;56.70;;;;;;5033661;27;90486;-52
2022/07/05 00:22:52;;;;;;;58.47;49.35;;;24.00;56.70;;;;;;5029741;27;89652;-49
2022/07/05 00:25:18;;;;;;;58.22;49.22;;;24.00;56.70;;;;;;5028498;27;90777;-52
2022/07/05 00:27:43;;;;;;;58.25;49.28;;;24.00;56.70;;;;;;5017030;27;90359;-52
2022/07/05 00:30:10;;;;;;;58.45;49.15;;;23.90;56.80;;;;;;5025462;27;90346;-50
2022/07/05 00:32:36;;;;;;;58.50;49.13;;;23.90;56.80;;;;;;5020471;27;90166;-47
2022/07/05 00:35:06;;;;;;;58.75;49.17;;;23.90;56.80;;;;;;5029801;27;89606;-54
2022/07/05 00:37:32;;;;;;;57.88;49.45;;;23.90;56.80;;;;;;5029651;27;89904;-47
2022/07/05 00:39:57;;;;;;;57.63;49.17;;;23.80;56.80;;;;;;5026156;27;91897;-51
2022/07/05 00:42:23;;;;;;;57.63;49.15;;;23.80;56.90;;;;;;5027486;27;88843;-54
2022/07/05 00:44:49;;;;;;;57.35;49.15;;;23.90;56.90;;;;;;5027429;27;89751;-50
2022/07/05 00:47:15;;;;;;;58.65;49.35;;;23.80;56.80;;;;;;5025947;27;93475;-52
2022/07/05 00:49:41;;;;;;;57.60;49.25;;;23.80;56.80;;;;;;5031327;27;91177;-50
2022/07/05 00:52:07;;;;;;;58.00;49.33;;;23.80;57.00;;;;;;5026787;27;91578;-52
2022/07/05 00:54:36;;;;;;;59.20;49.22;;;23.80;56.90;;;;;;5031588;27;90224;-49
2022/07/05 00:57:02;;;;;;;57.83;49.13;;;23.80;56.80;;;;;;5025943;27;89884;-51
2022/07/05 00:59:29;;;;;;;57.65;49.13;;;23.80;56.90;;;;;;5027584;27;89812;-54
2022/07/05 01:01:55;;;;;;;57.60;49.20;;;23.70;56.90;;;;;;5026448;27;93231;-51
2022/07/05 01:04:21;;;;;;;57.55;49.10;;;23.70;57.00;;;;;;5031871;27;90999;-50
2022/07/05 01:06:48;;;;;;;57.50;49.08;;;23.70;56.90;;;;;;5016792;27;88854;-52
2022/07/05 01:09:16;;;;;;;57.63;49.28;;;23.70;57.00;;;;;;5028833;27;90250;-52
2022/07/05 01:11:45;;;;;;;58.05;49.05;;;23.70;56.90;;;;;;5015408;27;89845;-49
2022/07/05 01:14:17;;;;;;;57.75;49.13;;;23.70;57.00;;;;;;5026918;27;91823;-50
2022/07/05 01:16:43;;;;;;;57.97;49.42;;;23.70;57.00;;;;;;5029303;27;89994;-53
2022/07/05 01:19:11;;;;;;;58.22;49.25;;;23.70;57.20;;;;;;5025042;27;91235;-50
2022/07/05 01:21:43;;;;;;;57.45;49.15;;;23.70;57.00;;;;;;5029988;27;89580;-53
2022/07/05 01:24:13;;;;;;;57.70;49.33;;;23.60;57.00;;;;;;5019959;27;89481;-53
2022/07/05 01:26:40;;;;;;;58.20;49.20;;;23.60;57.10;;;;;;5032423;27;90077;-54
2022/07/05 01:29:08;;;;;;;57.72;49.17;;;23.60;57.10;;;;;;5023478;27;90916;-54
2022/07/05 01:31:37;;;;;;;58.67;49.22;;;23.60;57.20;;;;;;5033895;27;89664;-51
2022/07/05 01:34:03;;;;;;;57.75;49.10;;;23.50;57.10;;;;;;5027153;27;90262;-51
2022/07/05 01:36:29;;;;;;;57.28;49.05;;;23.50;57.10;;;;;;5023523;27;90108;-53
2022/07/05 01:38:55;;;;;;;58.13;49.30;;;23.50;57.20;;;;;;5020348;27;91530;-53
2022/07/05 01:41:20;;;;;;;58.15;49.17;;;23.50;57.20;;;;;;5026406;27;91001;-52
2022/07/05 01:43:46;;;;;;;58.08;49.08;;;23.50;57.20;;;;;;5019005;27;93938;-52
2022/07/05 01:46:14;;;;;;;57.67;49.33;;;23.50;57.20;;;;;;5030281;27;89972;-54
2022/07/05 01:48:41;;;;;;;56.92;48.90;;;23.50;57.20;;;;;;5030126;27;89866;-53
2022/07/05 01:51:18;;;;;;;58.05;49.20;;;23.50;57.30;;;;;;5029804;27;91041;-50
2022/07/05 01:53:46;;;;;;;57.33;49.05;;;23.40;57.30;;;;;;5023246;27;89832;-52
2022/07/05 01:56:12;;;;;;;56.88;49.15;;;23.50;57.30;;;;;;5031743;27;89137;-52
2022/07/05 01:58:39;;;;;;;57.03;49.08;;;23.40;57.40;;;;;;5018598;27;89989;-50
2022/07/05 02:01:04;;;;;;;57.15;49.00;;;23.40;57.30;;;;;;5022691;27;89632;-51
2022/07/05 02:03:30;;;;;;;57.15;49.15;;;23.40;57.40;;;;;;5026618;27;91016;-54
2022/07/05 02:05:56;;;;;;;57.78;48.90;;;23.40;57.40;;;;;;5028776;27;89766;-54
2022/07/05 02:08:29;;;;;;;57.35;49.08;;;23.40;57.50;;;;;;5029905;27;91216;-50
2022/07/05 02:10:54;;;;;;;56.92;49.00;;;23.30;57.50;;;;;;5026649;27;90733;-50
2022/07/05 02:13:21;;;;;;;57.78;48.78;;;23.30;57.60;;;;;;5021475;27;90136;-52
2022/07/05 02:15:47;;;;;;;56.78;48.95;;;23.30;57.70;;;;;;5033553;27;89814;-47
2022/07/05 02:18:12;;;;;;;57.13;49.10;;;23.30;57.60;;;;;;5029182;27;90021;-50
2022/07/05 02:20:39;;;;;;;56.95;48.95;;;23.20;57.60;;;;;;5033680;27;89264;-54
2022/07/05 02:23:05;;;;;;;57.58;49.40;;;23.20;57.50;;;;;;5028070;27;89872;-51
2022/07/05 02:25:31;;;;;;;57.40;48.78;;;23.20;57.60;;;;;;5036297;27;89637;-53
2022/07/05 02:27:57;;;;;;;57.35;48.80;;;23.20;57.60;;;;;;5026175;27;90660;-51
2022/07/05 02:30:23;;;;;;;58.00;49.00;;;23.20;58.20;;;;;;5025454;27;91303;-50
2022/07/05 02:32:48;;;;;;;57.42;49.10;;;23.20;57.70;;;;;;5032698;27;89872;-52
2022/07/05 02:35:14;;;;;;;56.95;48.85;;;23.10;57.60;;;;;;5027099;27;89839;-53
2022/07/05 02:37:40;;;;;;;56.85;48.72;;;23.10;57.70;;;;;;5030995;27;89856;-50
2022/07/05 02:40:08;;;;;;;57.70;49.08;;;23.20;57.70;;;;;;5023314;27;90486;-54
2022/07/05 02:42:34;;;;;;;58.20;48.90;;;23.10;57.60;;;;;;5035023;27;92275;-54
2022/07/05 02:44:59;;;;;;;57.30;48.97;;;23.10;57.70;;;;;;5028549;27;89805;-53
2022/07/05 02:47:25;;;;;;;58.28;48.88;;;23.10;57.70;;;;;;5032934;27;89729;-53
2022/07/05 02:49:51;;;;;;;57.00;48.88;;;23.10;57.80;;;;;;5032387;27;90787;-51
2022/07/05 02:52:17;;;;;;;57.20;48.92;;;23.10;57.80;;;;;;5025647;27;90590;-52
2022/07/05 02:54:43;;;;;;;57.92;48.85;;;23.00;57.80;;;;;;5024537;27;90916;-54
2022/07/05 02:57:08;;;;;;;56.42;48.88;;;23.00;57.80;;;;;;5020913;27;89636;-55
2022/07/05 02:59:34;;;;;;;57.10;48.92;;;23.00;57.90;;;;;;5015667;27;90496;-53
2022/07/05 03:01:59;;;;;;;57.65;49.05;;;23.00;57.90;;;;;;5033907;27;89956;-51
2022/07/05 03:04:25;;;;;;;56.70;48.70;;;23.00;57.90;;;;;;5023549;27;90406;-52
2022/07/05 03:06:51;;;;;;;57.50;48.92;;;23.00;57.80;;;;;;5025641;27;91042;-50
2022/07/05 03:09:16;;;;;;;57.50;48.85;;;23.00;57.80;;;;;;5029695;27;93615;-52
2022/07/05 03:11:42;;;;;;;56.40;48.83;;;23.00;57.90;;;;;;5016714;27;91728;-53
2022/07/05 03:14:08;;;;;;;57.17;48.80;;;22.90;57.90;;;;;;5023647;27;90259;-47
2022/07/05 03:16:33;;;;;;;56.75;48.92;;;22.90;57.90;;;;;;5031044;27;91171;-52
2022/07/05 03:18:59;;;;;;;57.05;48.83;;;22.90;57.90;;;;;;5017805;27;90552;-47
2022/07/05 03:21:24;;;;;;;57.25;49.05;;;22.90;57.90;;;;;;5031603;27;91007;-53
2022/07/05 03:23:50;;;;;;;57.38;49.05;;;22.90;57.80;;;;;;5025305;27;90163;-50
2022/07/05 03:26:16;;;;;;;56.42;48.92;;;22.90;57.90;;;;;;5038544;27;90373;-51
2022/07/05 03:28:41;;;;;;;57.33;48.78;;;22.90;57.90;;;;;;5028699;27;90033;-47
2022/07/05 03:31:07;;;;;;;56.53;48.72;;;22.90;57.90;;;;;;5030140;27;93094;-52
2022/07/05 03:33:33;;;;;;;56.45;48.88;;;22.90;57.90;;;;;;5030474;27;89591;-50
2022/07/05 03:35:58;;;;;;;57.25;48.92;;;22.80;57.90;;;;;;5022267;27;89994;-54
2022/07/05 03:38:24;;;;;;;57.00;48.85;;;22.80;58.00;;;;;;5033724;27;90297;-52
2022/07/05 03:40:50;;;;;;;56.28;48.78;;;22.80;58.00;;;;;;5030839;27;92471;-52
2022/07/05 03:43:15;;;;;;;56.70;48.80;;;22.80;58.00;;;;;;5027133;27;90496;-53
2022/07/05 03:45:41;;;;;;;56.95;48.88;;;22.80;58.00;;;;;;5027436;27;91289;-49
2022/07/05 03:48:07;;;;;;;56.97;48.95;;;22.80;58.00;;;;;;5032119;27;89886;-55
2022/07/05 03:50:32;;;;;;;57.97;48.83;;;22.80;58.10;;;;;;5030136;27;90267;-52
2022/07/05 03:52:58;;;;;;;57.45;49.08;;;22.80;58.00;;;;;;5033049;27;89650;-50
2022/07/05 03:55:24;;;;;;;57.00;48.63;;;22.80;58.00;;;;;;5023988;27;90141;-49
2022/07/05 03:57:49;;;;;;;57.95;49.22;;;22.80;58.00;;;;;;5029803;27;90630;-54
2022/07/05 04:00:15;;;;;;;57.22;48.97;;;22.70;57.90;;;;;;5029229;27;91813;-50
2022/07/05 04:02:41;;;;;;;57.05;48.85;;;22.70;57.90;;;;;;5035984;27;89921;-53
2022/07/05 04:05:07;;;;;;;56.28;48.72;;;22.70;57.90;;;;;;5029151;27;93358;-53
2022/07/05 04:07:33;;;;;;;57.38;48.45;;;22.70;57.90;;;;;;5019947;27;90600;-52
2022/07/05 04:09:59;;;;;;;56.67;48.55;;;22.70;57.90;;;;;;5022431;27;89785;-53
2022/07/05 04:12:25;;;;;;;56.75;48.88;;;22.70;57.90;;;;;;5022045;27;91047;-50
2022/07/05 04:14:51;;;;;;;56.15;48.75;;;22.70;57.90;;;;;;5020489;27;90155;-52
2022/07/05 04:17:17;;;;;;;57.58;48.67;;;22.70;57.90;;;;;;5034515;27;90501;-53
2022/07/05 04:19:42;;;;;;;55.92;48.55;;;22.70;57.90;;;;;;5034067;27;90140;-53
2022/07/05 04:22:08;;;;;;;57.00;48.95;;;22.70;57.90;;;;;;5037643;27;88825;-53
2022/07/05 04:25:16;;;;;;;56.38;49.00;;;22.70;57.90;;;;;;5024032;27;89730;-53
2022/07/05 04:27:19;;;;;;;58.60;49.20;;;22.70;57.90;;;;;;5028275;27;89501;-47
2022/07/05 04:29:45;;;;;;;57.83;48.85;;;22.70;58.40;;;;;;5023516;27;90735;-52
2022/07/05 04:32:10;;;;;;;58.20;49.05;;;22.70;57.90;;;;;;5034126;27;89504;-55
2022/07/05 04:34:36;;;;;;;56.90;48.83;;;22.70;57.80;;;;;;5019873;27;93523;-53
2022/07/05 04:37:01;;;;;;;56.65;48.97;;;22.70;57.80;;;;;;5032542;27;91068;-53
2022/07/05 04:39:27;;;;;;;56.45;48.67;;;22.70;57.90;;;;;;5027340;27;91246;-50
2022/07/05 04:41:52;;;;;;;58.22;48.75;;;22.80;57.80;;;;;;5018147;27;89617;-54
2022/07/05 04:44:18;;;;;;;57.50;48.95;;;22.80;57.80;;;;;;5034981;27;89432;-52
2022/07/05 04:46:44;;;;;;;58.35;49.15;;;22.70;57.90;;;;;;5026550;27;90022;-51
2022/07/05 04:49:09;;;;;;;57.35;49.17;;;22.80;57.90;;;;;;5031570;27;90084;-54
2022/07/05 04:51:35;;;;;;;57.17;49.05;;;22.70;57.90;;;;;;5025421;27;93252;-49
2022/07/05 04:54:01;;;;;;;56.50;48.92;;;22.70;57.80;;;;;;5029456;27;91152;-51
2022/07/05 04:56:26;;;;;;;56.45;48.85;;;22.80;57.90;;;;;;5029701;27;90130;-54
2022/07/05 04:58:52;;;;;;;56.60;49.22;;;22.80;57.90;;;;;;5027400;27;90170;-51
2022/07/05 05:01:17;;;;;;;56.85;49.00;;;22.80;57.80;;;;;;5020748;27;92987;-53
2022/07/05 05:03:43;;;;;;;57.08;48.90;;;22.80;57.80;;;;;;5032373;27;89635;-51
2022/07/05 05:06:09;;;;;;;59.17;49.22;;;22.80;57.90;;;;;;5022541;27;90035;-50
2022/07/05 05:08:34;;;;;;;57.08;48.85;;;22.80;57.80;;;;;;5027977;27;90945;-52
2022/07/05 05:11:00;;;;;;;56.55;49.05;;;22.80;57.80;;;;;;5013043;27;89151;-53
2022/07/05 05:13:26;;;;;;;56.05;48.78;;;22.80;57.80;;;;;;5012275;27;93440;-54
2022/07/05 05:15:51;;;;;;;56.65;48.95;;;22.80;57.70;;;;;;5026399;27;89964;-54
2022/07/05 05:18:18;;;;;;;57.58;49.10;;;22.80;57.70;;;;;;5030499;27;91013;-51
2022/07/05 05:20:44;;;;;;;56.97;49.25;;;22.80;57.70;;;;;;5017853;27;90029;-49
2022/07/05 05:23:09;;;;;;;57.35;48.90;;;22.90;57.60;;;;;;5026510;27;89838;-54
2022/07/05 05:25:36;;;;;;;57.15;49.20;;;22.90;57.40;;;;;;5022548;27;91871;-52
2022/07/05 05:28:02;;;;;;;57.33;49.38;;;22.90;57.50;;;;;;5021553;27;89903;-51
2022/07/05 05:30:27;;;;;;;57.25;49.05;;;22.90;57.40;;;;;;5025926;27;89601;-50
2022/07/05 05:32:53;;;;;;;57.05;49.10;;;22.90;57.20;;;;;;5030803;27;90313;-48
2022/07/05 05:35:20;;;;;;;56.53;48.83;;;23.00;57.90;;;;;;5033769;27;89675;-52
2022/07/05 05:37:54;;;;;;;56.70;48.75;;;23.00;57.50;;;;;;5032026;27;89809;-53
2022/07/05 05:40:21;;;;;;;56.95;49.05;;;23.10;57.50;;;;;;5027097;27;90266;-53
2022/07/05 05:42:47;;;;;;;57.88;49.25;;;23.10;57.00;;;;;;5020609;27;90767;-54
2022/07/05 05:45:13;;;;;;;57.25;49.00;;;23.10;56.70;;;;;;5021117;27;91619;-49
2022/07/05 05:47:50;;;;;;;57.95;49.10;;;23.10;56.60;;;;;;5026030;27;89656;-50
2022/07/05 05:50:19;;;;;;;57.75;49.35;;;23.10;56.70;;;;;;5022812;27;89480;-51
2022/07/05 05:52:45;;;;;;;57.65;49.28;;;23.10;56.70;;;;;;5025813;27;90528;-48
2022/07/05 05:55:11;;;;;;;58.78;49.75;;;23.10;56.60;;;;;;5020864;27;90396;-51
2022/07/05 05:57:37;;;;;;;57.97;49.53;;;23.10;56.60;;;;;;5014393;27;90667;-50
2022/07/05 06:00:05;;;;;;;58.35;49.83;;;23.10;56.60;;;;;;5022558;27;90822;-53
2022/07/05 06:02:31;;;;;;;60.45;49.80;;;23.10;56.60;;;;;;5024284;27;89772;-52
2022/07/05 06:04:56;;;;;;;58.75;49.65;;;23.10;56.60;;;;;;5029031;27;89682;-51
2022/07/05 06:07:22;;;;;;;60.38;49.65;;;23.10;56.60;;;;;;5020143;27;91041;-51
2022/07/05 06:09:47;;;;;;;58.35;49.75;;;23.10;56.60;;;;;;5024276;27;90215;-50
2022/07/05 06:12:13;;;;;;;57.80;49.53;;;23.10;56.60;;;;;;5023652;27;89981;-50
2022/07/05 06:14:39;;;;;;;60.08;49.67;;;23.10;56.60;;;;;;5032922;27;90188;-53
2022/07/05 06:17:05;;;;;;;58.17;49.58;;;23.10;56.60;;;;;;5019444;27;90811;-54
2022/07/05 06:19:30;;;;;;;59.22;49.83;;;23.20;56.60;;;;;;5027724;27;90705;-54
2022/07/05 06:21:56;;;;;;;57.60;49.22;;;23.10;56.60;;;;;;5012657;27;90040;-54
2022/07/05 06:24:21;;;;;;;58.47;49.50;;;23.20;56.60;;;;;;5030173;27;89855;-51
2022/07/05 06:26:47;;;;;;;58.67;49.53;;;23.20;56.60;;;;;;5028904;27;91480;-53
2022/07/05 06:29:13;;;;;;;57.58;49.40;;;23.20;56.60;;;;;;5030644;27;90216;-55
2022/07/05 06:31:38;;;;;;;59.03;49.58;;;23.20;56.60;;;;;;5026217;27;91509;-53
2022/07/05 06:34:04;;;;;;;58.80;49.47;;;23.20;56.50;;;;;;5030972;27;89966;-51
2022/07/05 06:36:29;;;;;;;58.85;49.67;;;23.20;56.60;;;;;;5024111;27;89938;-48
2022/07/05 06:38:55;;;;;;;60.35;49.67;;;23.30;56.60;;;;;;5031092;27;90181;-51
2022/07/05 06:41:21;;;;;;;58.33;49.25;;;23.30;56.60;;;;;;5026669;27;89962;-53
2022/07/05 06:43:46;;;;;;;58.38;49.53;;;23.30;56.40;;;;;;5023552;27;93936;-53
2022/07/05 06:46:12;;;;;;;59.97;49.90;;;23.20;56.40;;;;;;5027222;27;90304;-55
2022/07/05 06:48:38;;;;;;;59.45;49.58;;;23.30;57.10;;;;;;5023739;27;88822;-53
2022/07/05 06:51:03;;;;;;;59.30;49.63;;;23.30;56.50;;;;;;5034475;27;90718;-52
2022/07/05 06:53:29;;;;;;;58.35;49.58;;;23.30;56.50;;;;;;5025426;27;91127;-52
2022/07/05 06:55:55;;;;;;;59.17;49.67;;;23.30;56.50;;;;;;5023684;27;90942;-48
2022/07/05 06:58:20;;;;;;;57.78;49.35;;;23.40;56.60;;;;;;5023821;27;89917;-52
2022/07/05 07:00:46;;;;;;;58.90;49.58;;;23.40;56.50;;;;;;5024566;27;90181;-50
2022/07/05 07:03:12;;;;;;;58.13;49.50;;;23.40;56.50;;;;;;5027619;27;90158;-52
2022/07/05 07:05:37;;;;;;;60.08;49.60;;;23.30;56.40;;;;;;5017230;27;89792;-53
2022/07/05 07:10:47;;;;;;;58.78;49.45;;;23.40;56.40;;;;;;5034298;27;90159;-52
2022/07/05 07:13:13;;;;;;;57.72;49.33;;;23.40;56.20;;;;;;5020803;27;89684;-50
2022/07/05 07:15:40;;;;;;;58.15;49.35;;;23.50;56.30;;;;;;5021244;27;89702;-51
2022/07/05 07:18:06;;;;;;;60.08;49.83;;;23.50;56.30;;;;;;5028940;27;90436;-52
2022/07/05 07:20:32;;;;;;;59.13;49.35;;;23.50;56.30;;;;;;5026038;27;91599;-55
2022/07/05 07:22:57;;;;;;;58.35;49.50;;;23.50;56.30;;;;;;5018212;27;90181;-50
2022/07/05 07:25:23;;;;;;;59.78;49.72;;;23.40;56.40;;;;;;5027845;27;89513;-54
2022/07/05 07:27:50;;;;;;;58.50;49.50;;;23.40;56.40;;;;;;5012711;27;89700;-50
2022/07/05 07:30:19;;;;;;;59.05;49.40;;;23.40;57.00;;;;;;5028343;27;90296;-53
2022/07/05 07:32:45;;;;;;;62.03;49.90;;;23.50;56.70;;;;;;5029892;27;89994;-51
2022/07/05 07:35:11;;;;;;;58.30;49.45;;;23.50;56.90;;;;;;5024703;27;90342;-53
2022/07/05 07:37:37;;;;;;;60.47;49.95;;;23.50;56.20;;;;;;5023102;27;88998;-54
2022/07/05 07:40:04;;;;;;;59.55;49.65;;;23.50;56.20;;;;;;5027576;27;90150;-54
2022/07/05 07:42:30;;;;;;;59.90;49.75;;;23.50;56.20;;;;;;5027125;27;90844;-54
2022/07/05 07:44:56;;;;;;;58.08;49.50;;;23.50;56.20;;;;;;5030008;27;90556;-55
2022/07/05 07:47:22;;;;;;;59.38;49.65;;;23.50;56.10;;;;;;5034312;27;90582;-50
2022/07/05 07:49:47;;;;;;;58.85;49.80;;;23.50;56.10;;;;;;5024950;27;95944;-51
2022/07/05 07:52:14;;;;;;;59.35;49.65;;;23.60;56.10;;;;;;5030692;27;89841;-54
2022/07/05 07:54:40;;;;;;;58.97;49.63;;;23.60;56.10;;;;;;5019212;27;92773;-52
2022/07/05 07:57:05;;;;;;;59.40;49.60;;;23.60;56.10;;;;;;5018388;27;89917;-49
2022/07/05 07:59:32;;;;;;;59.05;49.65;;;23.60;56.10;;;;;;5026113;27;89909;-50
2022/07/05 08:01:57;;;;;;;60.13;49.85;;;23.60;56.00;;;;;;5028701;27;89332;-50
2022/07/05 08:04:23;;;;;;;60.25;49.75;;;23.60;55.90;;;;;;5030793;27;89555;-48
2022/07/05 08:06:49;;;;;;;59.65;49.80;;;23.60;55.90;;;;;;5018946;27;90349;-53
2022/07/05 08:09:14;;;;;;;59.33;49.75;;;23.60;55.90;;;;;;5029000;27;91042;-49
2022/07/05 08:11:40;;;;;;;58.92;49.47;;;23.60;55.80;;;;;;5022468;27;90543;-50
2022/07/05 08:14:06;;;;;;;59.38;49.78;;;23.60;55.80;;;;;;5026923;27;94928;-53
2022/07/05 08:16:32;;;;;;;58.85;49.75;;;23.60;55.80;;;;;;5032987;27;90119;-51
2022/07/05 08:21:43;;;;;;;59.13;49.65;;;23.60;55.80;;;;;;5029687;27;90043;-48
2022/07/05 08:24:13;;;;;;;59.40;49.88;;;23.60;55.90;;;;;;5021648;27;89737;-53
2022/07/05 08:26:40;;;;;;;59.13;49.80;;;23.60;55.90;;;;;;5036293;27;88866;-50
2022/07/05 08:29:08;;;;;;;59.42;49.85;;;23.60;55.90;;;;;;5021584;27;90557;-52
2022/07/05 08:31:37;;;;;;;59.63;49.95;;;23.60;55.90;;;;;;5029669;27;90085;-53
2022/07/05 08:34:03;;;;;;;58.80;49.92;;;23.60;55.90;;;;;;5028515;27;93318;-54
2022/07/05 08:36:29;;;;;;;58.70;49.80;;;23.60;56.00;;;;;;5028112;27;90032;-52
2022/07/05 08:38:55;;;;;;;59.75;50.20;;;23.60;56.70;;;;;;5007602;27;90046;-48
2022/07/05 08:41:22;;;;;;;60.97;50.22;;;23.60;56.10;;;;;;5030526;27;89553;-49
2022/07/05 08:43:49;;;;;;;59.10;49.80;;;23.60;56.00;;;;;;5025608;27;91201;-52
2022/07/05 08:46:16;;;;;;;60.67;50.00;;;23.60;56.10;;;;;;5028522;27;90362;-51
2022/07/05 08:48:43;;;;;;;60.00;50.13;;;23.60;56.70;;;;;;5021838;27;90369;-52
2022/07/05 08:51:25;;;;;;;59.35;49.95;;;23.60;56.10;;;;;;5023872;27;90760;-47
2022/07/05 08:53:53;;;;;;;60.22;50.15;;;23.60;55.90;;;;;;5020405;27;93284;-48
2022/07/05 08:56:19;;;;;;;61.05;49.75;;;23.60;55.90;;;;;;5028227;27;90702;-54
2022/07/05 08:58:45;;;;;;;59.00;49.80;;;23.70;55.90;;;;;;5022135;27;91030;-51
2022/07/05 09:01:15;;;;;;;60.00;50.15;;;23.70;55.90;;;;;;5030287;27;90207;-53
2022/07/05 09:03:49;;;;;;;59.83;50.08;;;23.60;55.80;;;;;;5025835;27;89508;-53
2022/07/05 09:06:25;;;;;;;59.20;49.78;;;23.60;55.80;;;;;;5033848;27;89850;-52
2022/07/05 09:08:56;;;;;;;60.17;50.10;;;23.70;55.80;;;;;;5014833;27;90658;-50
2022/07/05 09:11:23;;;;;;;;;;;23.70;55.60;;;;;;5022286;27;89660;-52
2022/07/05 09:13:50;;;;;;;59.25;49.83;;;23.70;55.60;;;;;;5027588;27;92991;-54
2022/07/05 09:16:16;;;;;;;58.80;49.78;;;23.70;55.70;;;;;;5022550;27;91967;-51
2022/07/05 09:18:52;;;;;;;59.03;49.83;;;23.70;55.70;;;;;;5031913;27;90362;-52
2022/07/05 09:21:26;;;;;;;61.22;50.28;;;23.70;55.70;;;;;;5002748;27;90893;-51
2022/07/05 09:23:59;;;;;;;59.75;49.92;;;23.70;55.80;;;;;;5032728;27;91006;-53
2022/07/05 09:26:43;;;;;;;61.00;50.38;;;23.70;55.90;;;;;;5029948;27;89724;-53
2022/07/05 09:29:15;;;;;;;59.50;49.95;;;23.70;55.80;;;;;;5022477;27;95414;-50
2022/07/05 09:31:42;;;;;;;61.00;50.05;;;23.70;55.70;;;;;;5024734;27;90209;-52
2022/07/05 09:34:15;;;;;;;59.60;49.95;;;23.80;55.70;;;;;;5027332;27;91219;-50
2022/07/05 09:36:47;;;;;;;60.08;50.25;;;23.80;55.60;;;;;;5029417;27;89940;-53
2022/07/05 09:39:13;;;;;;;59.05;49.95;;;23.80;55.60;;;;;;5033971;27;89733;-52
2022/07/05 09:41:38;;;;;;;60.55;49.92;;;23.80;55.60;;;;;;5023430;27;93797;-55
2022/07/05 09:44:05;;;;;;;59.92;50.25;;;23.80;55.70;;;;;;5028141;27;89630;-52
2022/07/05 09:46:31;;;;;;;59.00;49.95;;;23.80;55.80;;;;;;5023279;27;91814;-54
2022/07/05 09:48:57;;;;;;;60.05;50.25;;;23.80;55.80;;;;;;5030790;27;91574;-51
2022/07/05 09:51:22;;;;;;;59.55;50.15;;;23.90;55.80;;;;;;5026399;27;90790;-50
2022/07/05 09:53:50;;;;;;;59.13;50.00;;;23.90;55.80;;;;;;5029379;27;90142;-52
2022/07/05 09:56:17;;;;;;;59.33;50.05;;;24.00;55.70;;;;;;5022978;27;91740;-53
2022/07/05 09:58:43;;;;;;;59.28;49.92;;;24.00;55.60;;;;;;5025359;27;90459;-54
2022/07/05 10:01:28;;;;;;;60.63;50.17;;;24.00;55.60;;;;;;5016756;27;90425;-53
2022/07/05 10:03:55;;;;;;;59.72;50.05;;;24.00;55.40;;;;;;5029352;27;92429;-53
2022/07/05 10:06:25;;;;;;;59.55;50.25;;;24.00;55.40;;;;;;5025028;27;89196;-49
2022/07/05 10:08:53;;;;;;;60.58;49.83;;;24.00;55.30;;;;;;5034883;27;90038;-51
2022/07/05 10:11:20;;;;;;;59.95;49.95;;;24.10;55.30;;;;;;5016964;27;89902;-53
2022/07/05 10:13:49;;;;;;;61.10;50.33;;;24.00;55.30;;;;;;5027116;27;90938;-52
2022/07/05 10:16:20;;;;;;;59.60;50.17;;;24.10;55.30;;;;;;5019584;27;90036;-53
2022/07/05 10:18:48;;;;;;;60.00;49.92;;;24.10;55.30;;;;;;5034226;27;90742;-52
2022/07/05 10:21:14;;;;;;;59.58;50.22;;;24.10;55.30;;;;;;5026943;27;90017;-55
2022/07/05 10:23:48;;;;;;;59.22;50.10;;;24.10;55.30;;;;;;5011451;27;91481;-54
2022/07/05 10:26:15;;;;;;;60.50;50.28;;;24.10;55.20;;;;;;5024321;27;92062;-51
2022/07/05 10:28:46;;;;;;;59.42;50.05;;;24.20;55.30;;;;;;5034272;27;90100;-51
2022/07/05 10:31:14;;;;;;;59.58;50.00;;;24.10;55.30;;;;;;5026848;27;90771;-55
2022/07/05 10:33:40;;;;;;;60.38;50.15;;;24.20;55.30;;;;;;5035186;27;89516;-55
2022/07/05 10:36:10;;;;;;;59.65;50.28;;;24.20;55.30;;;;;;5028571;27;92180;-52
2022/07/05 10:38:39;;;;;;;59.50;50.22;;;24.20;55.30;;;;;;5028327;27;92243;-55
2022/07/05 10:41:08;;;;;;;59.97;50.25;;;24.20;55.30;;;;;;5024378;27;89974;-52
2022/07/05 10:43:34;;;;;;;60.45;50.42;;;24.20;55.30;;;;;;5024931;27;90699;-51
2022/07/05 10:46:00;;;;;;;59.95;50.13;;;24.20;55.30;;;;;;5024451;27;89647;-48
2022/07/05 10:48:27;;;;;;;59.47;50.25;;;24.20;55.80;;;;;;5035039;27;91380;-48
2022/07/05 10:50:59;;;;;;;61.10;50.35;;;24.20;55.10;;;;;;5027336;27;94735;-55
2022/07/05 10:53:49;;;;;;;59.80;50.33;;;24.20;55.20;;;;;;5018078;27;89981;-54
2022/07/05 10:56:14;;;;;;;59.92;50.38;;;24.20;55.20;;;;;;5025881;27;89237;-49
2022/07/05 10:58:41;;;;;;;59.63;50.35;;;24.20;55.20;;;;;;5026769;27;90041;-51
2022/07/05 11:01:15;;;;;;;59.65;50.35;;;24.20;55.20;;;;;;5016119;27;91035;-48
2022/07/05 11:03:48;;;;;;;60.20;50.55;;;24.20;55.20;;;;;;5027345;27;90492;-52
2022/07/05 11:06:25;;;;;;;60.22;50.33;;;24.30;55.20;;;;;;5024939;27;92954;-51
2022/07/05 11:08:59;;;;;;;60.30;50.55;;;24.20;55.30;;;;;;5032976;27;90612;-55
2022/07/05 11:11:36;;;;;;;60.20;50.58;;;24.30;55.30;;;;;;5029546;27;90766;-51
2022/07/05 11:14:20;;;;;;;59.95;50.30;;;24.20;55.30;;;;;;5031342;27;90741;-53
2022/07/05 11:16:47;;;;;;;60.45;50.63;;;24.30;55.30;;;;;;5028332;27;90113;-53
2022/07/05 11:19:20;;;;;;;59.75;50.17;;;24.30;55.30;;;;;;5029870;27;90781;-52
2022/07/05 11:22:07;;;;;;;59.83;50.35;;;24.30;55.30;;;;;;5028804;27;90758;-53
2022/07/05 11:24:36;;;;;;;59.53;50.30;;;24.30;55.20;;;;;;5034201;27;90060;-53
2022/07/05 11:27:11;;;;;;;61.40;50.47;;;24.30;55.20;;;;;;5028272;27;89900;-54
2022/07/05 11:29:48;;;;;;;61.22;50.55;;;24.30;55.00;;;;;;5030079;27;90981;-52
2022/07/05 11:32:17;;;;;;;60.00;50.25;;;24.30;55.00;;;;;;5023339;27;90561;-54
2022/07/05 11:34:44;;;;;;;60.05;50.30;;;24.40;55.00;;;;;;5024668;27;90105;-49
2022/07/05 11:37:19;;;;;;;59.95;50.42;;;24.30;55.00;;;;;;5023356;27;93888;-53
2022/07/05 11:39:45;;;;;;;59.78;50.25;;;24.30;55.00;;;;;;5036216;27;90533;-54
2022/07/05 11:42:21;;;;;;;60.00;50.28;;;24.30;55.00;;;;;;5017825;27;91688;-53
2022/07/05 11:44:50;;;;;;;59.22;49.88;;;24.30;55.00;;;;;;5030758;27;90283;-53
2022/07/05 11:47:17;;;;;;;59.28;49.83;;;24.30;55.00;;;;;;5025193;27;89049;-51
2022/07/05 11:49:56;;;;;;;59.28;50.15;;;24.30;55.00;;;;;;5030133;27;90130;-49
2022/07/05 11:52:25;;;;;;;60.25;50.20;;;24.40;55.00;;;;;;5021522;27;90378;-53
2022/07/05 11:54:51;;;;;;;61.33;50.30;;;24.30;55.00;;;;;;5034167;27;92103;-53
2022/07/05 11:57:19;;;;;;;59.55;49.92;;;24.40;55.00;;;;;;5006907;27;90745;-51
2022/07/05 11:59:45;;;;;;;59.47;50.05;;;24.40;55.00;;;;;;5028464;27;90146;-54
2022/07/05 12:02:10;;;;;;;61.03;50.13;;;24.40;55.00;;;;;;5027653;27;90422;-53
2022/07/05 12:04:36;;;;;;;60.70;50.33;;;24.40;54.80;;;;;;5034100;27;90235;-54
2022/07/05 12:07:02;;;;;;;60.13;50.45;;;24.40;54.90;;;;;;5032053;27;90346;-52
2022/07/05 12:15:06;;;;;;;61.83;50.28;;;24.40;54.80;;;;;;5025030;27;90273;-52
2022/07/05 12:17:34;;;;;;;60.80;50.55;;;24.40;54.80;;;;;;5027599;27;89606;-50
2022/07/05 12:20:00;;;;;;;60.00;50.33;;;24.40;54.60;;;;;;5033002;27;90774;-54
2022/07/05 12:22:41;;;;;;;60.80;50.33;;;24.40;54.70;;;;;;5008314;27;90935;-52
2022/07/05 12:25:11;;;;;;;60.65;50.50;;;24.50;54.70;;;;;;5037834;27;89814;-53
2022/07/05 12:27:39;;;;;;;60.10;50.15;;;24.40;54.90;;;;;;5022106;27;93861;-50
2022/07/05 12:30:06;;;;;;;59.97;50.38;;;24.40;54.70;;;;;;5021499;27;90056;-52
2022/07/05 12:32:32;;;;;;;59.45;50.20;;;24.40;54.80;;;;;;5022707;27;89625;-49
2022/07/05 12:34:59;;;;;;;60.28;50.45;;;24.40;54.90;;;;;;5033540;27;91155;-53
2022/07/05 12:37:26;;;;;;;60.70;50.53;;;24.40;54.90;;;;;;5011880;27;90295;-50
2022/07/05 12:40:09;;;;;;;60.25;50.28;;;24.40;54.90;;;;;;5033552;27;89500;-52